createdAt,value
2019-02-26T00:01:48.533Z,15.63
2019-02-26T00:04:14.389Z,15.60
2019-02-26T00:06:47.194Z,15.03
2019-02-26T00:09:13.239Z,14.95
2019-02-26T00:11:42.662Z,14.80
2019-02-26T00:14:15.574Z,13.90
2019-02-26T00:16:42.370Z,15.60
2019-02-26T00:19:12.419Z,14.90
2019-02-26T00:21:43.032Z,14.90
2019-02-26T00:24:12.814Z,16.25
2019-02-26T00:26:43.495Z,16.27
2019-02-26T00:29:12.577Z,15.78
2019-02-26T00:31:41.120Z,15.35
2019-02-26T00:34:10.679Z,15.93
2019-02-26T00:36:39.857Z,14.20
2019-02-26T00:39:08.440Z,15.10
2019-02-26T00:41:37.021Z,16.40
2019-02-26T00:44:06.527Z,15.80
2019-02-26T00:46:36.862Z,17.32
2019-02-26T00:49:07.512Z,16.57
2019-02-26T00:51:35.629Z,16.70
2019-02-26T00:54:04.247Z,18.70
2019-02-26T00:56:34.058Z,16.75
2019-02-26T00:59:03.081Z,18.17
2019-02-26T01:01:31.659Z,16.10
2019-02-26T01:04:00.191Z,16.23
2019-02-26T01:06:29.434Z,16.80
2019-02-26T01:08:59.467Z,17.15
2019-02-26T01:11:30.221Z,16.97
2019-02-26T01:13:59.557Z,16.80
2019-02-26T01:16:28.176Z,15.50
2019-02-26T01:18:56.670Z,16.12
2019-02-26T01:21:26.780Z,17.10
2019-02-26T01:23:56.606Z,17.40
2019-02-26T01:26:27.845Z,17.15
2019-02-26T01:28:56.555Z,15.80
2019-02-26T01:31:27.380Z,14.95
2019-02-26T01:33:57.396Z,18.50
2019-02-26T01:36:26.157Z,18.42
2019-02-26T01:38:54.815Z,18.32
2019-02-26T01:41:25.025Z,16.40
2019-02-26T01:43:53.555Z,15.45
2019-02-26T01:46:22.150Z,15.85
2019-02-26T01:48:50.762Z,16.85
2019-02-26T01:51:20.147Z,18.37
2019-02-26T01:53:51.406Z,19.70
2019-02-26T01:56:20.458Z,18.73
2019-02-26T01:58:56.309Z,18.95
2019-02-26T02:01:21.389Z,19.77
2019-02-26T02:03:52.713Z,19.20
2019-02-26T02:06:19.933Z,19.80
2019-02-26T02:08:50.466Z,20.25
2019-02-26T02:11:23.414Z,22.50
2019-02-26T02:13:48.945Z,20.00
2019-02-26T02:16:17.532Z,20.27
2019-02-26T02:18:48.381Z,17.75
2019-02-26T02:21:16.356Z,17.77
2019-02-26T02:23:46.443Z,18.27
2019-02-26T02:26:15.647Z,19.90
2019-02-26T02:28:44.285Z,19.02
2019-02-26T02:31:12.868Z,17.35
2019-02-26T02:33:41.460Z,19.37
2019-02-26T02:36:11.740Z,19.60
2019-02-26T02:38:40.254Z,19.30
2019-02-26T02:41:08.814Z,19.10
2019-02-26T02:43:37.400Z,18.42
2019-02-26T02:46:05.893Z,17.80
2019-02-26T02:48:34.504Z,16.12
2019-02-26T02:51:05.353Z,15.40
2019-02-26T02:53:33.393Z,15.38
2019-02-26T02:56:03.679Z,17.62
2019-02-26T02:58:32.158Z,18.62
2019-02-26T03:01:00.698Z,18.62
2019-02-26T03:03:29.251Z,20.02
2019-02-26T03:05:58.366Z,18.23
2019-02-26T03:08:27.935Z,18.82
2019-02-26T03:10:56.431Z,18.23
2019-02-26T03:13:26.021Z,16.93
2019-02-26T03:15:56.664Z,17.55
2019-02-26T03:18:25.504Z,17.70
2019-02-26T03:20:56.605Z,17.10
2019-02-26T03:23:24.388Z,18.37
2019-02-26T03:25:54.971Z,19.50
2019-02-26T03:28:23.233Z,20.20
2019-02-26T03:30:51.867Z,20.82
2019-02-26T03:33:20.396Z,20.00
2019-02-26T03:35:48.975Z,19.90
2019-02-26T03:38:18.136Z,22.25
2019-02-26T03:40:49.324Z,22.25
2019-02-26T03:43:17.951Z,22.32
2019-02-26T03:45:48.040Z,20.90
2019-02-26T03:48:20.277Z,20.82
2019-02-26T03:50:47.053Z,20.12
2019-02-26T03:53:15.524Z,20.55
2019-02-26T03:55:44.113Z,19.62
2019-02-26T03:58:12.944Z,20.30
2019-02-26T04:00:43.697Z,19.32
2019-02-26T04:03:12.594Z,21.40
2019-02-26T04:05:41.971Z,20.77
2019-02-26T04:08:10.600Z,22.42
2019-02-26T04:10:39.176Z,20.12
2019-02-26T04:13:07.692Z,24.20
2019-02-26T04:15:38.253Z,22.67
2019-02-26T04:18:06.572Z,24.00
2019-02-26T04:20:35.063Z,23.22
2019-02-26T04:23:03.954Z,23.83
2019-02-26T04:25:38.093Z,24.45
2019-02-26T04:28:12.163Z,24.52
2019-02-26T04:30:58.696Z,22.30
2019-02-26T04:34:05.106Z,22.98
2019-02-26T04:37:10.439Z,22.00
2019-02-26T04:39:51.495Z,23.02
2019-02-26T04:42:40.437Z,24.05
2019-02-26T04:45:27.726Z,23.67
2019-02-26T04:51:00.261Z,21.60
2019-02-26T04:53:31.164Z,22.25
2019-02-26T04:55:59.789Z,23.38
2019-02-26T05:01:13.433Z,23.60
2019-02-26T05:03:47.214Z,22.25
2019-02-26T05:09:02.675Z,23.42
2019-02-26T05:11:37.228Z,26.05
2019-02-26T05:14:03.028Z,24.07
2019-02-26T05:16:34.167Z,22.62
2019-02-26T05:19:02.052Z,25.50
2019-02-26T05:24:18.008Z,26.40
2019-02-26T05:26:46.951Z,23.87
2019-02-26T05:29:15.508Z,22.55
2019-02-26T05:31:47.147Z,23.32
2019-02-26T05:37:29.160Z,23.75
2019-02-26T05:39:58.101Z,21.75
2019-02-26T05:50:32.067Z,21.48
2019-02-26T05:53:01.936Z,20.05
2019-02-26T05:55:30.742Z,20.32
2019-02-26T05:57:59.487Z,19.65
2019-02-26T06:00:30.575Z,21.20
2019-02-26T06:02:58.515Z,19.02
2019-02-26T06:05:27.258Z,19.40
2019-02-26T06:07:55.879Z,17.82
2019-02-26T06:10:26.626Z,18.42
2019-02-26T06:12:54.948Z,17.75
2019-02-26T06:15:23.107Z,18.97
2019-02-26T06:17:53.502Z,18.70
2019-02-26T06:22:56.191Z,18.32
2019-02-26T06:25:24.904Z,16.73
2019-02-26T06:27:53.668Z,17.67
2019-02-26T06:30:22.383Z,15.63
2019-02-26T06:32:51.149Z,15.60
2019-02-26T06:35:19.939Z,16.73
2019-02-26T06:37:48.654Z,14.50
2019-02-26T06:40:17.815Z,18.25
2019-02-26T06:42:46.576Z,17.80
2019-02-26T06:45:16.377Z,17.60
2019-02-26T06:47:48.445Z,16.82
2019-02-26T06:50:18.708Z,16.77
2019-02-26T06:52:47.855Z,16.65
2019-02-26T06:55:17.057Z,15.28
2019-02-26T06:57:47.089Z,15.40
2019-02-26T07:00:19.694Z,15.65
2019-02-26T07:02:48.800Z,16.15
2019-02-26T07:05:17.477Z,14.15
2019-02-26T07:07:47.071Z,15.63
2019-02-26T07:12:51.772Z,17.75
2019-02-26T07:15:20.499Z,17.95
2019-02-26T07:17:49.319Z,19.62
2019-02-26T07:20:18.041Z,16.97
2019-02-26T07:22:49.239Z,30.02
2019-02-26T07:25:18.613Z,110.95
2019-02-26T07:27:48.105Z,36.85
2019-02-26T07:30:16.897Z,31.65
2019-02-26T07:32:48.342Z,23.50
2019-02-26T07:37:56.704Z,84.30
2019-02-26T07:40:28.485Z,17.87
2019-02-26T07:43:04.919Z,16.50
2019-02-26T07:45:32.329Z,14.18
2019-02-26T07:48:01.778Z,15.23
2019-02-26T07:50:34.165Z,14.87
2019-02-26T07:53:01.267Z,14.73
2019-02-26T07:55:32.796Z,14.60
2019-02-26T08:01:04.536Z,14.20
2019-02-26T08:09:33.008Z,12.95
2019-02-26T08:12:04.785Z,11.28
2019-02-26T08:14:40.199Z,11.43
2019-02-26T08:17:08.535Z,8.75
2019-02-26T08:19:49.188Z,8.78
2019-02-26T08:22:22.579Z,9.10
2019-02-26T08:24:58.060Z,10.60
2019-02-26T08:34:05.423Z,7.67
2019-02-26T08:36:40.408Z,7.67
2019-02-26T08:39:14.954Z,7.87
2019-02-26T08:41:50.628Z,7.70
2019-02-26T08:44:22.132Z,6.57
2019-02-26T08:46:51.551Z,7.30
2019-02-26T08:49:22.523Z,6.80
2019-02-26T08:51:51.490Z,6.87
2019-02-26T08:54:25.563Z,8.43
2019-02-26T08:56:55.073Z,7.60
2019-02-26T08:59:28.583Z,6.63
2019-02-26T09:01:59.978Z,8.43
2019-02-26T09:04:31.632Z,14.80
2019-02-26T09:07:02.121Z,10.00
2019-02-26T09:09:32.706Z,7.50
2019-02-26T09:12:03.049Z,6.27
2019-02-26T09:14:34.513Z,5.73
2019-02-26T09:17:02.173Z,16.87
2019-02-26T09:19:33.105Z,11.50
2019-02-26T09:22:02.518Z,5.33
2019-02-26T09:24:31.104Z,6.63
2019-02-26T09:27:02.338Z,5.80
2019-02-26T09:29:31.457Z,11.30
2019-02-26T09:32:00.084Z,7.13
2019-02-26T09:34:31.304Z,9.60
2019-02-26T09:37:01.185Z,7.20
2019-02-26T09:39:29.560Z,9.50
2019-02-26T09:41:59.852Z,5.23
2019-02-26T09:44:31.471Z,4.60
2019-02-26T09:47:00.567Z,5.20
2019-02-26T09:49:31.454Z,5.07
2019-02-26T09:52:01.536Z,5.63
2019-02-26T09:54:30.364Z,6.13
2019-02-26T09:56:58.935Z,5.53
2019-02-26T09:59:29.083Z,5.80
2019-02-26T10:01:58.948Z,5.23
2019-02-26T10:04:28.939Z,5.13
2019-02-26T10:06:58.355Z,4.23
2019-02-26T10:09:28.148Z,4.10
2019-02-26T10:11:56.783Z,4.43
2019-02-26T10:14:26.964Z,4.30
2019-02-26T10:16:56.994Z,4.97
2019-02-26T10:19:25.874Z,4.43
2019-02-26T10:21:54.471Z,4.57
2019-02-26T10:24:27.142Z,4.30
2019-02-26T10:26:53.311Z,4.30
2019-02-26T10:29:21.927Z,4.73
2019-02-26T10:31:51.264Z,4.70
2019-02-26T10:34:20.879Z,4.73
2019-02-26T10:36:53.224Z,4.80
2019-02-26T10:39:26.446Z,5.17
2019-02-26T10:41:54.375Z,4.13
2019-02-26T10:44:27.850Z,4.30
2019-02-26T10:46:58.239Z,4.07
2019-02-26T10:49:30.421Z,3.70
2019-02-26T10:52:01.579Z,3.97
2019-02-26T10:54:34.251Z,3.80
2019-02-26T10:57:04.579Z,3.10
2019-02-26T10:59:32.820Z,3.10
2019-02-26T11:02:03.196Z,2.90
2019-02-26T11:04:35.678Z,2.97
2019-02-26T11:07:08.733Z,2.90
2019-02-26T11:09:36.919Z,3.90
2019-02-26T11:12:10.648Z,3.60
2019-02-26T11:14:41.960Z,2.03
2019-02-26T11:17:12.685Z,2.60
2019-02-26T11:19:46.554Z,2.60
2019-02-26T11:22:17.676Z,2.80
2019-02-26T11:24:50.689Z,2.73
2019-02-26T11:27:22.346Z,2.80
2019-02-26T11:29:54.611Z,3.40
2019-02-26T11:32:27.188Z,3.40
2019-02-26T11:34:59.768Z,3.53
2019-02-26T11:37:29.540Z,3.50
2019-02-26T11:40:00.470Z,4.00
2019-02-26T11:42:28.905Z,3.60
2019-02-26T11:44:57.440Z,4.33
2019-02-26T11:47:26.158Z,4.53
2019-02-26T11:49:54.657Z,4.87
2019-02-26T11:52:23.374Z,4.53
2019-02-26T11:54:51.919Z,4.60
2019-02-26T11:57:20.378Z,4.93
2019-02-26T11:59:48.850Z,5.17
2019-02-26T12:02:25.122Z,5.03
2019-02-26T12:04:47.608Z,4.43
2019-02-26T12:07:16.116Z,6.10
2019-02-26T12:09:44.721Z,5.40
2019-02-26T12:12:13.232Z,5.90
2019-02-26T12:14:43.932Z,6.20
2019-02-26T12:17:12.325Z,5.33
2019-02-26T12:19:40.819Z,5.43
2019-02-26T12:22:09.295Z,5.30
2019-02-26T12:24:37.807Z,5.50
2019-02-26T12:27:07.310Z,5.50
2019-02-26T12:29:36.509Z,5.63
2019-02-26T12:32:05.047Z,5.97
2019-02-26T12:34:35.173Z,6.00
2019-02-26T12:37:06.658Z,6.20
2019-02-26T12:39:34.229Z,5.40
2019-02-26T12:42:02.726Z,5.33
2019-02-26T12:44:31.923Z,5.20
2019-02-26T12:47:01.551Z,5.40
2019-02-26T12:49:32.620Z,5.40
2019-02-26T12:52:03.258Z,5.93
2019-02-26T12:54:33.269Z,5.07
2019-02-26T12:57:04.036Z,5.07
2019-02-26T12:59:30.973Z,4.63
2019-02-26T13:01:59.533Z,5.33
2019-02-26T13:04:28.132Z,5.60
2019-02-26T13:06:57.719Z,5.50
2019-02-26T13:09:26.861Z,5.50
2019-02-26T13:12:01.151Z,5.93
2019-02-26T13:14:25.795Z,5.37
2019-02-26T13:16:57.141Z,5.10
2019-02-26T13:19:26.394Z,5.10
2019-02-26T13:22:00.752Z,5.20
2019-02-26T13:24:26.643Z,4.80
2019-02-26T13:26:59.717Z,5.40
2019-02-26T13:29:29.815Z,5.00
2019-02-26T13:31:59.927Z,5.40
2019-02-26T13:34:28.490Z,5.70
2019-02-26T13:36:57.178Z,5.90
2019-02-26T13:39:29.824Z,5.60
2019-02-26T13:42:03.721Z,6.20
2019-02-26T13:44:26.291Z,6.07
2019-02-26T13:46:54.834Z,5.20
2019-02-26T13:49:23.354Z,5.80
2019-02-26T13:51:51.911Z,5.20
2019-02-26T13:54:20.449Z,7.90
2019-02-26T13:56:48.956Z,5.70
2019-02-26T13:59:17.521Z,5.30
2019-02-26T14:01:46.113Z,5.80
2019-02-26T14:04:14.704Z,6.73
2019-02-26T14:06:43.961Z,6.40
2019-02-26T14:09:12.568Z,6.47
2019-02-26T14:11:42.991Z,5.70
2019-02-26T14:14:14.782Z,5.37
2019-02-26T14:16:44.583Z,5.70
2019-02-26T14:19:14.153Z,5.97
2019-02-26T14:21:44.455Z,5.80
2019-02-26T14:24:15.537Z,5.23
2019-02-26T14:26:45.860Z,5.60
2019-02-26T14:29:14.442Z,6.80
2019-02-26T14:31:43.084Z,5.33
2019-02-26T14:34:16.712Z,5.00
2019-02-26T14:36:45.260Z,4.93
2019-02-26T14:39:14.048Z,5.30
2019-02-26T14:41:42.619Z,5.10
2019-02-26T14:44:11.248Z,5.60
2019-02-26T14:46:39.792Z,5.57
2019-02-26T14:49:08.382Z,4.87
2019-02-26T14:51:36.922Z,5.57
2019-02-26T14:54:06.544Z,5.67
2019-02-26T14:56:35.170Z,4.93
2019-02-26T14:59:04.561Z,4.87
2019-02-26T15:01:33.162Z,5.43
2019-02-26T15:04:01.707Z,4.73
2019-02-26T15:06:30.307Z,4.77
2019-02-26T15:08:59.882Z,5.50
2019-02-26T15:11:28.411Z,4.80
2019-02-26T15:13:56.984Z,4.20
2019-02-26T15:16:25.508Z,4.30
2019-02-26T15:18:54.118Z,4.23
2019-02-26T15:21:22.709Z,4.40
2019-02-26T15:23:51.258Z,4.20
2019-02-26T15:26:19.746Z,3.70
2019-02-26T15:28:49.095Z,3.90
2019-02-26T15:31:17.726Z,3.10
2019-02-26T15:33:46.202Z,3.07
2019-02-26T15:36:14.798Z,3.43
2019-02-26T15:38:43.365Z,3.30
2019-02-26T15:41:11.966Z,3.90
2019-02-26T15:43:40.527Z,4.10
2019-02-26T15:46:09.138Z,3.90
2019-02-26T15:48:37.753Z,4.43
2019-02-26T15:51:14.133Z,4.00
2019-02-26T15:53:36.545Z,3.87
2019-02-26T15:56:05.148Z,3.30
2019-02-26T15:58:34.172Z,3.60
2019-02-26T16:01:05.489Z,4.23
2019-02-26T16:03:36.238Z,3.53
2019-02-26T16:06:05.949Z,5.07
2019-02-26T16:08:34.863Z,3.57
2019-02-26T16:11:04.229Z,3.73
2019-02-26T16:13:32.682Z,3.90
2019-02-26T16:16:04.005Z,4.27
2019-02-26T16:18:33.078Z,4.10
2019-02-26T16:21:01.643Z,5.10
2019-02-26T16:23:33.135Z,4.60
2019-02-26T16:26:05.660Z,4.40
2019-02-26T16:28:33.863Z,3.93
2019-02-26T16:31:07.320Z,4.70
2019-02-26T16:33:38.047Z,4.27
2019-02-26T16:36:10.657Z,4.53
2019-02-26T16:38:39.378Z,5.33
2019-02-26T16:41:16.844Z,4.50
2019-02-26T16:43:47.252Z,4.30
2019-02-26T16:46:16.191Z,3.87
2019-02-26T16:48:45.620Z,3.47
2019-02-26T16:51:24.038Z,3.57
2019-02-26T16:53:58.179Z,3.87
2019-02-26T16:56:59.934Z,3.67
2019-02-26T17:09:27.247Z,3.95
2019-02-26T17:12:38.533Z,3.27
2019-02-26T17:15:08.616Z,3.95
2019-02-26T17:17:37.437Z,3.93
2019-02-26T17:20:09.101Z,3.77
2019-02-26T17:22:38.448Z,3.70
2019-02-26T17:25:09.227Z,3.73
2019-02-26T17:27:38.957Z,3.50
2019-02-26T17:30:13.604Z,3.23
2019-02-26T17:32:42.315Z,3.00
2019-02-26T17:35:12.426Z,3.30
2019-02-26T17:37:41.733Z,3.20
2019-02-26T17:40:18.720Z,2.80
2019-02-26T17:42:48.808Z,3.20
2019-02-26T17:45:20.004Z,3.23
2019-02-26T17:47:48.881Z,2.70
2019-02-26T17:50:26.172Z,3.50
2019-02-26T17:52:54.814Z,3.37
2019-02-26T17:55:24.014Z,2.77
2019-02-26T17:57:52.840Z,3.50
2019-02-26T18:00:25.909Z,3.33
2019-02-26T18:02:54.636Z,2.90
2019-02-26T18:05:23.462Z,3.13
2019-02-26T18:07:52.360Z,3.20
2019-02-26T18:10:22.731Z,3.40
2019-02-26T18:12:51.432Z,3.90
2019-02-26T18:15:20.884Z,3.80
2019-02-26T18:17:49.775Z,3.77
2019-02-26T18:20:19.987Z,3.20
2019-02-26T18:22:49.034Z,3.97
2019-02-26T18:25:19.637Z,3.90
2019-02-26T18:27:48.624Z,2.83
2019-02-26T18:30:19.470Z,4.50
2019-02-26T18:32:50.485Z,4.03
2019-02-26T18:35:18.697Z,3.10
2019-02-26T18:37:47.688Z,4.23
2019-02-26T18:40:17.633Z,4.10
2019-02-26T18:42:47.020Z,3.70
2019-02-26T18:45:21.376Z,3.70
2019-02-26T18:47:50.085Z,3.97
2019-02-26T18:50:18.911Z,3.70
2019-02-26T18:52:47.726Z,3.95
2019-02-26T18:55:19.397Z,4.43
2019-02-26T18:57:48.334Z,3.80
2019-02-26T19:00:25.638Z,4.75
2019-02-26T19:02:53.068Z,4.40
2019-02-26T19:05:23.606Z,5.22
2019-02-26T19:07:52.407Z,4.15
2019-02-26T19:10:21.270Z,4.50
2019-02-26T19:12:49.918Z,4.50
2019-02-26T19:15:20.847Z,4.60
2019-02-26T19:17:51.390Z,6.30
2019-02-26T19:20:25.667Z,6.50
2019-02-26T19:22:58.488Z,5.53
2019-02-26T19:25:24.878Z,6.17
2019-02-26T19:31:14.480Z,7.37
2019-02-26T19:33:43.178Z,7.20
2019-02-26T19:36:12.964Z,6.83
2019-02-26T19:38:42.811Z,7.45
2019-02-26T19:41:14.726Z,5.95
2019-02-26T19:43:43.424Z,6.35
2019-02-26T19:46:17.901Z,7.35
2019-02-26T19:48:46.737Z,7.37
2019-02-26T19:51:15.515Z,7.45
2019-02-26T19:53:44.275Z,7.72
2019-02-26T19:56:13.119Z,7.03
2019-02-26T19:58:41.988Z,7.28
2019-02-26T20:01:10.634Z,7.72
2019-02-26T20:03:40.347Z,7.00
2019-02-26T20:06:09.620Z,6.72
2019-02-26T20:08:38.392Z,7.12
2019-02-26T20:11:07.311Z,7.95
2019-02-26T20:13:41.935Z,7.47
2019-02-26T20:16:06.609Z,7.80
2019-02-26T20:18:35.330Z,7.20
2019-02-26T20:21:04.253Z,8.25
2019-02-26T20:23:32.976Z,7.72
2019-02-26T20:26:02.202Z,7.40
2019-02-26T20:28:30.852Z,7.28
2019-02-26T20:30:59.590Z,7.50
2019-02-26T20:33:28.219Z,6.40
2019-02-26T20:35:57.019Z,7.28
2019-02-26T20:38:25.856Z,6.75
2019-02-26T20:40:54.593Z,7.17
2019-02-26T20:43:23.230Z,7.50
2019-02-26T20:45:52.185Z,8.03
2019-02-26T20:48:20.830Z,8.20
2019-02-26T20:50:53.472Z,8.73
2019-02-26T20:53:20.042Z,8.68
2019-02-26T20:55:52.431Z,8.15
2019-02-26T20:58:20.283Z,7.37
2019-02-26T21:00:49.101Z,8.35
2019-02-26T21:03:17.936Z,7.85
2019-02-26T21:05:46.586Z,8.63
2019-02-26T21:08:15.468Z,8.73
2019-02-26T21:10:45.899Z,8.48
2019-02-26T21:13:14.809Z,7.92
2019-02-26T21:15:44.732Z,7.97
2019-02-26T21:18:14.032Z,8.60
2019-02-26T21:20:42.814Z,7.25
2019-02-26T21:23:11.554Z,8.23
2019-02-26T21:25:43.929Z,7.33
2019-02-26T21:28:10.599Z,8.23
2019-02-26T21:30:39.400Z,8.40
2019-02-26T21:35:45.085Z,8.48
2019-02-26T21:38:13.787Z,7.92
2019-02-26T21:40:42.445Z,9.20
2019-02-26T21:43:11.062Z,9.03
2019-02-26T21:45:39.827Z,8.08
2019-02-26T21:50:59.261Z,8.78
2019-02-26T21:53:28.128Z,7.58
2019-02-26T21:58:42.963Z,8.23
2019-02-26T22:04:15.284Z,8.53
2019-02-26T22:06:44.860Z,7.47
2019-02-26T22:09:18.705Z,6.50
2019-02-26T22:11:50.474Z,6.37
2019-02-26T22:14:17.761Z,6.85
2019-02-26T22:16:48.986Z,7.35
2019-02-26T22:19:17.031Z,6.40
2019-02-26T22:21:51.849Z,8.15
2019-02-26T22:24:20.397Z,8.00
2019-02-26T22:29:25.226Z,8.78
2019-02-26T22:34:30.280Z,7.12
2019-02-26T22:36:59.003Z,7.80
2019-02-26T22:39:27.679Z,7.45
2019-02-26T22:41:56.524Z,7.45
2019-02-26T22:44:25.408Z,7.85
2019-02-26T22:46:54.252Z,7.42
2019-02-26T22:49:23.048Z,7.75
2019-02-26T22:51:51.776Z,7.08
2019-02-26T22:54:21.053Z,7.87
2019-02-26T22:56:49.777Z,7.80
2019-02-26T23:01:56.642Z,8.25
2019-02-26T23:04:25.330Z,7.60
2019-02-26T23:06:54.127Z,7.80
2019-02-26T23:09:25.549Z,8.35
2019-02-26T23:11:54.523Z,8.53
2019-02-26T23:14:23.755Z,7.50
2019-02-26T23:16:52.720Z,7.40
2019-02-26T23:19:22.911Z,7.72
2019-02-26T23:21:52.054Z,6.90
2019-02-26T23:24:20.918Z,6.05
2019-02-26T23:26:49.821Z,7.00
2019-02-26T23:29:18.559Z,6.65
2019-02-26T23:31:47.364Z,8.05
2019-02-26T23:34:16.237Z,7.30
2019-02-26T23:36:45.347Z,6.80
2019-02-26T23:39:15.214Z,7.55
2019-02-26T23:41:43.981Z,7.28
2019-02-26T23:44:13.231Z,7.62
2019-02-26T23:46:42.003Z,7.05
2019-02-26T23:49:11.835Z,7.12
2019-02-26T23:51:41.287Z,8.48
2019-02-26T23:54:09.968Z,7.17
2019-02-26T23:56:38.711Z,7.10
2019-02-26T23:59:07.504Z,6.85
